Forside
METAR-TAF:

METAR-TAF

Lufthavne :

St. Paul Downtown Airport (Holman Field)

Saint Paul, Minnesota, USA

Breddekreds: 44-55-49N, længdekreds: 093-02-53W, højde: 214 m

Aktuelle vejr

Denne rapport blev lavet for 1 time og 2 minutter siden, kl. 01:53 UTC
Vind 7 kt fra nordnordvest
Temperatur -6°C
Fugtighed 53%
Tryk 1020 hPa
Sigt: 16.1 km
skyfri

METAR: KSTP 280153Z 33007KT 10SM CLR M06/M14 A3012 RMK AO2 SLP210 T10611139

Tid: 20:55 (02:55 UTC)


TAF: fraværende

Vejrobservationer og prognoser fra mere end 4000 lufthavne (METAR og TAF).

De gule og røde prikker repræsenterer de meteorologiske stationer.

Flyt musen over at se navnet på stationen.

Så klik over at se vejr observationer og prognoser.

At skifte det kort: Klik på de grønne knapper med et sort kors for at zoome ind; på den grønne knap med en bindestreg for at zoome ud; eller på de grønne pile for tilstødende kort.


METAR-TAF: